createdAt,value
2019-01-12T00:00:55.680Z,1006.48
2019-01-12T00:01:55.019Z,1006.39
2019-01-12T00:02:58.544Z,1006.51
2019-01-12T00:03:57.201Z,1006.44
2019-01-12T00:04:56.209Z,1006.48
2019-01-12T00:05:55.983Z,1006.39
2019-01-12T00:06:54.588Z,1006.44
2019-01-12T00:08:05.770Z,1006.46
2019-01-12T00:09:03.974Z,1006.42
2019-01-12T00:10:01.834Z,1006.46
2019-01-12T00:11:05.619Z,1006.36
2019-01-12T00:12:05.053Z,1006.37
2019-01-12T00:13:09.262Z,1006.34
2019-01-12T00:14:07.097Z,1006.45
2019-01-12T00:15:06.808Z,1006.43
2019-01-12T00:16:05.408Z,1006.43
2019-01-12T00:17:06.468Z,1006.36
2019-01-12T00:18:03.978Z,1006.34
2019-01-12T00:19:08.274Z,1006.36
2019-01-12T00:20:09.777Z,1006.37
2019-01-12T00:21:08.050Z,1006.31
2019-01-12T00:22:08.502Z,1006.44
2019-01-12T00:23:06.810Z,1006.34
2019-01-12T00:24:05.245Z,1006.38
2019-01-12T00:25:05.646Z,1006.34
2019-01-12T00:26:04.485Z,1006.38
2019-01-12T00:27:02.778Z,1006.37
2019-01-12T00:28:04.489Z,1006.32
2019-01-12T00:29:07.744Z,1006.31
2019-01-12T00:30:06.474Z,1006.29
2019-01-12T00:31:05.435Z,1006.28
2019-01-12T00:32:09.023Z,1006.31
2019-01-12T00:33:07.002Z,1006.34
2019-01-12T00:34:04.684Z,1006.34
2019-01-12T00:35:02.779Z,1006.35
2019-01-12T00:36:00.763Z,1006.28
2019-01-12T00:36:59.223Z,1006.26
2019-01-12T00:38:00.706Z,1006.31
2019-01-12T00:39:00.535Z,1006.22
2019-01-12T00:39:58.798Z,1006.23
2019-01-12T00:40:56.980Z,1006.22
2019-01-12T00:42:00.604Z,1006.31
2019-01-12T00:42:59.299Z,1006.33
2019-01-12T00:43:58.140Z,1006.22
2019-01-12T00:44:55.942Z,1006.17
2019-01-12T00:45:53.610Z,1006.2
2019-01-12T00:46:57.922Z,1006.23
2019-01-12T00:47:54.679Z,1006.26
2019-01-12T00:48:57.503Z,1006.16
2019-01-12T00:49:55.249Z,1006.23
2019-01-12T00:50:55.866Z,1006.17
2019-01-12T00:51:59.338Z,1006.23
2019-01-12T00:52:56.633Z,1006.21
2019-01-12T00:53:53.859Z,1006.15
2019-01-12T00:54:51.458Z,1006.2
2019-01-12T00:55:49.702Z,1006.26
2019-01-12T00:56:50.294Z,1006.24
2019-01-12T00:57:48.406Z,1006.2
2019-01-12T00:58:46.542Z,1006.2
2019-01-12T00:59:45.687Z,1006.23
2019-01-12T01:00:45.046Z,1006.23
2019-01-12T01:01:44.983Z,1006.23
2019-01-12T01:02:48.810Z,1006.24
2019-01-12T01:03:46.526Z,1006.21
2019-01-12T01:04:45.841Z,1006.18
2019-01-12T01:05:45.538Z,1006.09
2019-01-12T01:06:53.177Z,1006.2
2019-01-12T01:07:50.402Z,1006.21
2019-01-12T01:08:49.487Z,1006.15
2019-01-12T01:09:49.016Z,1006.17
2019-01-12T01:10:47.350Z,1006.16
2019-01-12T01:11:45.231Z,1006.19
2019-01-12T01:12:51.469Z,1006.16
2019-01-12T01:13:50.120Z,1006.18
2019-01-12T01:15:02.149Z,1006.27
2019-01-12T01:16:04.867Z,1006.18
2019-01-12T01:17:09.218Z,1006.19
2019-01-12T01:18:07.353Z,1006.21
2019-01-12T01:19:04.938Z,1006.18
2019-01-12T01:20:09.784Z,1006.25
2019-01-12T01:21:15.766Z,1006.13
2019-01-12T01:22:23.636Z,1006.21
2019-01-12T01:23:22.211Z,1006.16
2019-01-12T01:24:21.501Z,1006.16
2019-01-12T01:25:23.917Z,1006.2
2019-01-12T01:27:32.253Z,1006.12
2019-01-12T01:28:29.666Z,1006.1
2019-01-12T01:29:41.443Z,1006.19
2019-01-12T01:30:40.258Z,1006.22
2019-01-12T01:31:39.856Z,1006.23
2019-01-12T01:32:38.223Z,1006.2
2019-01-12T01:33:38.183Z,1006.16
2019-01-12T01:34:36.160Z,1006.28
2019-01-12T01:35:40.184Z,1006.23
2019-01-12T01:36:38.760Z,1006.25
2019-01-12T01:37:36.601Z,1006.22
2019-01-12T01:38:38.767Z,1006.2
2019-01-12T01:39:38.196Z,1006.25
2019-01-12T01:40:40.909Z,1006.26
2019-01-12T01:41:42.122Z,1006.19
2019-01-12T01:42:40.679Z,1006.22
2019-01-12T01:43:39.272Z,1006.22
2019-01-12T01:44:38.561Z,1006.23
2019-01-12T01:45:40.306Z,1006.14
2019-01-12T01:46:43.233Z,1006.19
2019-01-12T01:47:41.602Z,1006.17
2019-01-12T01:48:39.804Z,1006.23
2019-01-12T01:49:38.660Z,1006.21
2019-01-12T01:50:39.723Z,1006.14
2019-01-12T01:51:38.193Z,1006.2
2019-01-12T01:52:39.569Z,1006.21
2019-01-12T01:53:40.391Z,1006.18
2019-01-12T01:54:38.358Z,1006.23
2019-01-12T01:55:36.589Z,1006.24
2019-01-12T01:56:38.799Z,1006.23
2019-01-12T01:57:37.448Z,1006.18
2019-01-12T01:58:38.403Z,1006.21
2019-01-12T01:59:38.715Z,1006.15
2019-01-12T02:00:45.379Z,1006.17
2019-01-12T02:01:43.321Z,1006.18
2019-01-12T02:02:42.784Z,1006.18
2019-01-12T02:03:40.743Z,1006.12
2019-01-12T02:04:43.313Z,1006.2
2019-01-12T02:05:50.863Z,1006.14
2019-01-12T02:06:52.479Z,1006.11
2019-01-12T02:07:52.227Z,1006.17
2019-01-12T02:08:52.559Z,1006.11
2019-01-12T02:09:50.202Z,1006.15
2019-01-12T02:10:51.749Z,1006.06
2019-01-12T02:11:50.170Z,1006.09
2019-01-12T02:12:49.922Z,1006.08
2019-01-12T02:13:47.837Z,1006.14
2019-01-12T02:14:47.402Z,1006.02
2019-01-12T02:15:45.770Z,1006.05
2019-01-12T02:16:45.044Z,1006.06
2019-01-12T02:17:44.517Z,1005.99
2019-01-12T02:18:43.587Z,1005.99
2019-01-12T02:19:44.599Z,1006.02
2019-01-12T02:20:42.836Z,1005.93
2019-01-12T02:21:40.400Z,1005.88
2019-01-12T02:22:38.381Z,1005.91
2019-01-12T02:23:38.132Z,1005.83
2019-01-12T02:24:40.813Z,1005.94
2019-01-12T02:25:39.078Z,1005.91
2019-01-12T02:26:36.503Z,1005.94
2019-01-12T02:27:35.846Z,1005.93
2019-01-12T02:28:38.356Z,1005.91
2019-01-12T02:29:35.826Z,1005.94
2019-01-12T02:30:33.374Z,1005.94
2019-01-12T02:31:36.356Z,1005.88
2019-01-12T02:32:38.194Z,1005.82
2019-01-12T02:33:45.777Z,1005.93
2019-01-12T02:34:43.921Z,1005.91
2019-01-12T02:35:41.402Z,1005.93
2019-01-12T02:36:39.556Z,1005.94
2019-01-12T02:37:37.284Z,1005.9
2019-01-12T02:38:42.637Z,1005.91
2019-01-12T02:39:41.676Z,1005.9
2019-01-12T02:40:41.132Z,1005.79
2019-01-12T02:41:44.173Z,1005.87
2019-01-12T02:42:42.382Z,1005.77
2019-01-12T02:43:41.664Z,1005.76
2019-01-12T02:44:39.466Z,1005.77
2019-01-12T02:45:37.651Z,1005.73
2019-01-12T02:46:40.538Z,1005.77
2019-01-12T02:47:41.306Z,1005.71
2019-01-12T02:48:40.434Z,1005.71
2019-01-12T02:49:40.909Z,1005.71
2019-01-12T02:50:40.814Z,1005.65
2019-01-12T02:51:39.419Z,1005.61
2019-01-12T02:52:38.141Z,1005.67
2019-01-12T02:53:36.797Z,1005.67
2019-01-12T02:54:41.484Z,1005.58
2019-01-12T02:55:43.149Z,1005.61
2019-01-12T02:56:44.383Z,1005.54
2019-01-12T02:57:43.212Z,1005.64
2019-01-12T02:58:41.626Z,1005.59
2019-01-12T02:59:40.009Z,1005.61
2019-01-12T03:00:39.125Z,1005.55
2019-01-12T03:01:38.136Z,1005.58
2019-01-12T03:02:35.425Z,1005.56
2019-01-12T03:03:38.967Z,1005.52
2019-01-12T03:04:37.611Z,1005.55
2019-01-12T03:05:36.402Z,1005.55
2019-01-12T03:06:38.850Z,1005.48
2019-01-12T03:07:41.331Z,1005.5
2019-01-12T03:08:45.533Z,1005.5
2019-01-12T03:09:49.581Z,1005.53
2019-01-12T03:10:47.111Z,1005.43
2019-01-12T03:11:45.695Z,1005.5
2019-01-12T03:12:46.787Z,1005.58
2019-01-12T03:13:46.499Z,1005.53
2019-01-12T03:14:44.569Z,1005.46
2019-01-12T03:15:42.040Z,1005.47
2019-01-12T03:16:46.527Z,1005.46
2019-01-12T03:17:46.536Z,1005.4
2019-01-12T03:18:45.168Z,1005.37
2019-01-12T03:19:42.877Z,1005.52
2019-01-12T03:20:40.303Z,1005.47
2019-01-12T03:21:41.313Z,1005.39
2019-01-12T03:22:47.404Z,1005.34
2019-01-12T03:23:49.422Z,1005.36
2019-01-12T03:24:47.376Z,1005.34
2019-01-12T03:25:46.179Z,1005.36
2019-01-12T03:26:47.887Z,1005.33
2019-01-12T03:27:47.427Z,1005.33
2019-01-12T03:28:46.801Z,1005.33
2019-01-12T03:29:46.222Z,1005.31
2019-01-12T03:30:44.267Z,1005.4
2019-01-12T03:31:41.563Z,1005.31
2019-01-12T03:32:46.355Z,1005.27
2019-01-12T03:33:48.845Z,1005.28
2019-01-12T03:34:46.056Z,1005.16
2019-01-12T03:35:49.703Z,1005.25
2019-01-12T03:36:48.405Z,1005.21
2019-01-12T03:37:45.923Z,1005.3
2019-01-12T03:38:43.568Z,1005.21
2019-01-12T03:39:41.523Z,1005.19
2019-01-12T03:40:39.019Z,1005.18
2019-01-12T03:41:40.229Z,1005.16
2019-01-12T03:42:41.602Z,1005.13
2019-01-12T03:43:45.416Z,1005.21
2019-01-12T03:44:43.241Z,1005.16
2019-01-12T03:45:43.084Z,1005.15
2019-01-12T03:46:40.858Z,1005.18
2019-01-12T03:47:38.924Z,1005.19
2019-01-12T03:48:43.181Z,1005.07
2019-01-12T03:49:42.327Z,1005.12
2019-01-12T03:50:40.285Z,1005.1
2019-01-12T03:51:39.279Z,1005.12
2019-01-12T03:53:47.266Z,1005.01
2019-01-12T03:54:44.029Z,1005.04
2019-01-12T03:55:56.771Z,1005.09
2019-01-12T03:57:00.973Z,1005.06
2019-01-12T03:58:03.587Z,1005
2019-01-12T03:59:02.254Z,1005.04
2019-01-12T04:00:04.465Z,1005.01
2019-01-12T04:01:08.373Z,1004.99
2019-01-12T04:02:08.545Z,1005
2019-01-12T04:03:06.498Z,1004.97
2019-01-12T04:04:05.529Z,1005.04
2019-01-12T04:05:05.980Z,1005.03
2019-01-12T04:06:09.445Z,1004.97
2019-01-12T04:07:09.497Z,1004.98
2019-01-12T04:08:18.350Z,1005.04
2019-01-12T04:09:22.386Z,1004.97
2019-01-12T04:10:20.317Z,1004.98
2019-01-12T04:11:19.041Z,1005
2019-01-12T04:12:17.379Z,1004.97
2019-01-12T04:13:17.965Z,1004.93
2019-01-12T04:14:22.251Z,1005.01
2019-01-12T04:15:28.705Z,1004.95
2019-01-12T04:16:34.876Z,1004.91
2019-01-12T04:17:34.102Z,1004.95
2019-01-12T04:18:37.120Z,1004.94
2019-01-12T04:19:36.811Z,1004.95
2019-01-12T04:20:36.584Z,1004.94
2019-01-12T04:21:40.353Z,1004.91
2019-01-12T04:22:46.328Z,1004.97
2019-01-12T04:23:44.425Z,1004.92
2019-01-12T04:24:47.719Z,1004.88
2019-01-12T04:25:46.255Z,1004.85
2019-01-12T04:26:45.774Z,1004.87
2019-01-12T04:27:45.277Z,1004.87
2019-01-12T04:28:43.905Z,1004.91
2019-01-12T04:29:41.454Z,1004.82
2019-01-12T04:30:40.477Z,1004.85
2019-01-12T04:31:38.701Z,1004.89
2019-01-12T04:32:38.590Z,1004.78
2019-01-12T04:33:37.436Z,1004.76
2019-01-12T04:34:39.374Z,1004.78
2019-01-12T04:35:46.311Z,1004.78
2019-01-12T04:36:45.836Z,1004.76
2019-01-12T04:37:44.939Z,1004.81
2019-01-12T04:38:50.819Z,1004.84
2019-01-12T04:39:48.593Z,1004.91
2019-01-12T04:40:47.211Z,1004.85
2019-01-12T04:41:45.877Z,1004.85
2019-01-12T04:42:44.719Z,1004.85
2019-01-12T04:43:45.975Z,1004.89
2019-01-12T04:44:48.058Z,1004.86
2019-01-12T04:45:47.565Z,1004.78
2019-01-12T04:46:46.110Z,1004.88
2019-01-12T04:47:44.416Z,1004.88
2019-01-12T04:48:43.870Z,1004.81
2019-01-12T04:49:44.389Z,1004.91
2019-01-12T04:50:50.507Z,1004.85
2019-01-12T04:51:49.072Z,1004.82
2019-01-12T04:52:53.183Z,1004.88
2019-01-12T04:53:55.803Z,1005
2019-01-12T04:55:04.911Z,1004.88
2019-01-12T04:56:02.861Z,1004.79
2019-01-12T04:57:03.170Z,1004.85
2019-01-12T04:58:01.807Z,1004.79
2019-01-12T04:59:00.337Z,1004.86
2019-01-12T04:59:59.713Z,1004.86
2019-01-12T05:01:00.626Z,1004.8
2019-01-12T05:02:02.160Z,1004.89
2019-01-12T05:03:02.567Z,1004.92
2019-01-12T05:04:03.698Z,1004.86
2019-01-12T05:05:03.637Z,1004.89
2019-01-12T05:06:01.933Z,1004.91
2019-01-12T05:07:00.666Z,1004.83
2019-01-12T05:08:04.860Z,1004.85
2019-01-12T05:09:04.275Z,1004.79
2019-01-12T05:10:05.175Z,1004.8
2019-01-12T05:11:04.738Z,1004.83
2019-01-12T05:12:03.817Z,1004.85
2019-01-12T05:13:04.878Z,1004.83
2019-01-12T05:14:03.570Z,1004.91
2019-01-12T05:15:06.417Z,1004.83
2019-01-12T05:16:05.033Z,1004.94
2019-01-12T05:17:06.275Z,1004.92
2019-01-12T05:18:04.839Z,1004.88
2019-01-12T05:19:05.551Z,1004.88
2019-01-12T05:20:07.099Z,1004.8
2019-01-12T05:21:04.924Z,1004.89
2019-01-12T05:22:05.410Z,1004.88
2019-01-12T05:23:03.407Z,1004.88
2019-01-12T05:24:07.740Z,1004.92
2019-01-12T05:25:06.744Z,1004.85
2019-01-12T05:26:07.343Z,1004.85
2019-01-12T05:27:05.327Z,1004.89
2019-01-12T05:28:04.127Z,1004.8
2019-01-12T05:29:06.044Z,1004.91
2019-01-12T05:30:07.319Z,1004.88
2019-01-12T05:31:04.826Z,1004.89
2019-01-12T05:32:05.366Z,1004.85
2019-01-12T05:33:04.260Z,1004.91
2019-01-12T05:34:02.386Z,1004.82
2019-01-12T05:35:01.620Z,1004.75
2019-01-12T05:35:59.064Z,1004.88
2019-01-12T05:37:00.686Z,1004.8
2019-01-12T05:37:58.905Z,1004.79
2019-01-12T05:38:57.517Z,1004.77
2019-01-12T05:39:56.240Z,1004.76
2019-01-12T05:40:55.230Z,1004.79
2019-01-12T05:41:54.337Z,1004.74
2019-01-12T05:42:52.366Z,1004.8
2019-01-12T05:43:54.924Z,1004.77
2019-01-12T05:44:55.021Z,1004.72
2019-01-12T05:45:54.293Z,1004.82
2019-01-12T05:46:53.896Z,1004.86
2019-01-12T05:47:52.877Z,1004.76
2019-01-12T05:48:54.050Z,1004.75
2019-01-12T05:49:54.314Z,1004.72
2019-01-12T05:50:53.494Z,1004.82
2019-01-12T05:51:56.066Z,1004.76
2019-01-12T05:52:56.165Z,1004.71
2019-01-12T05:53:57.591Z,1004.68
2019-01-12T05:54:54.982Z,1004.76
2019-01-12T05:55:58.107Z,1004.74
2019-01-12T05:55:59.206Z,1004.74
2019-01-12T05:57:06.427Z,1004.76
2019-01-12T05:58:07.940Z,1004.74
2019-01-12T05:59:06.330Z,1004.72
2019-01-12T06:00:14.968Z,1004.64
2019-01-12T06:01:12.495Z,1004.64
2019-01-12T06:02:11.540Z,1004.67
2019-01-12T06:03:13.518Z,1004.69
2019-01-12T06:04:15.558Z,1004.72
2019-01-12T06:05:13.547Z,1004.71
2019-01-12T06:06:16.026Z,1004.69
2019-01-12T06:07:14.896Z,1004.71
2019-01-12T06:08:14.345Z,1004.71
2019-01-12T06:09:12.199Z,1004.76
2019-01-12T06:10:10.667Z,1004.62
2019-01-12T06:11:14.019Z,1004.66
2019-01-12T06:12:15.848Z,1004.65
2019-01-12T06:13:13.225Z,1004.64
2019-01-12T06:14:15.896Z,1004.61
2019-01-12T06:15:16.119Z,1004.56
2019-01-12T06:16:16.102Z,1004.5
2019-01-12T06:17:18.844Z,1004.5
2019-01-12T06:18:20.297Z,1004.56
2019-01-12T06:19:22.470Z,1004.58
2019-01-12T06:20:23.671Z,1004.49
2019-01-12T06:21:26.202Z,1004.53
2019-01-12T06:22:25.479Z,1004.5
2019-01-12T06:23:27.863Z,1004.5
2019-01-12T06:24:25.469Z,1004.47
2019-01-12T06:24:43.117Z,1004.5
2019-01-12T06:25:43.960Z,1004.5
2019-01-12T06:26:48.444Z,1004.4
2019-01-12T06:27:45.956Z,1004.47
2019-01-12T06:28:43.688Z,1004.37
2019-01-12T06:29:41.869Z,1004.31
2019-01-12T06:30:40.373Z,1004.37
2019-01-12T06:31:41.541Z,1004.42
2019-01-12T06:32:38.985Z,1004.33
2019-01-12T06:33:37.287Z,1004.4
2019-01-12T06:34:39.100Z,1004.42
2019-01-12T06:35:36.627Z,1004.27
2019-01-12T06:36:34.634Z,1004.22
2019-01-12T06:37:33.444Z,1004.18
2019-01-12T06:38:30.986Z,1004.31
2019-01-12T06:39:35.455Z,1004.21
2019-01-12T06:40:35.368Z,1004.11
2019-01-12T06:41:37.516Z,1004.21
2019-01-12T06:42:34.933Z,1004.22
2019-01-12T06:43:34.669Z,1004.18
2019-01-12T06:44:33.576Z,1004.21
2019-01-12T06:45:30.947Z,1004.18
2019-01-12T06:46:29.982Z,1004.15
2019-01-12T06:47:35.525Z,1004.15
2019-01-12T06:48:36.919Z,1004.18
2019-01-12T06:49:38.230Z,1004.05
2019-01-12T06:50:41.160Z,1004.09
2019-01-12T06:51:42.132Z,1004.06
2019-01-12T06:52:42.935Z,1004.05
2019-01-12T06:53:46.683Z,1004.11
2019-01-12T06:54:43.990Z,1004.11
2019-01-12T06:55:44.317Z,1004.06
2019-01-12T06:56:42.709Z,1004.08
2019-01-12T06:57:42.935Z,1004.02
2019-01-12T06:58:42.241Z,1003.99
2019-01-12T06:59:47.474Z,1003.99
2019-01-12T07:00:46.170Z,1004
2019-01-12T07:01:44.132Z,1003.97
2019-01-12T07:02:43.222Z,1004.03
2019-01-12T07:03:42.604Z,1004
2019-01-12T07:04:42.027Z,1004.06
2019-01-12T07:05:39.354Z,1004.03
2019-01-12T07:06:36.677Z,1004.06
2019-01-12T07:07:35.220Z,1004.05
2019-01-12T07:08:33.080Z,1004.06
2019-01-12T07:09:30.537Z,1003.97
2019-01-12T07:10:33.438Z,1004.15
2019-01-12T07:11:38.223Z,1003.97
2019-01-12T07:12:35.684Z,1004
2019-01-12T07:13:36.733Z,1003.97
2019-01-12T07:14:39.573Z,1004.06
2019-01-12T07:15:39.760Z,1003.93
2019-01-12T07:16:39.073Z,1003.91
2019-01-12T07:17:38.028Z,1003.9
2019-01-12T07:18:35.685Z,1003.9
2019-01-12T07:19:39.994Z,1003.97
2019-01-12T07:20:39.738Z,1003.87
2019-01-12T07:21:37.656Z,1003.86
2019-01-12T07:22:36.124Z,1003.89
2019-01-12T07:23:37.543Z,1003.81
2019-01-12T07:24:35.250Z,1003.83
2019-01-12T07:25:33.395Z,1003.77
2019-01-12T07:26:35.975Z,1003.77
2019-01-12T07:27:34.486Z,1003.71
2019-01-12T07:28:33.215Z,1003.69
2019-01-12T07:29:31.158Z,1003.84
2019-01-12T07:30:36.657Z,1003.84
2019-01-12T07:31:41.161Z,1003.75
2019-01-12T07:32:39.949Z,1003.77
2019-01-12T07:33:38.169Z,1003.77
2019-01-12T07:34:36.811Z,1003.72
2019-01-12T07:35:34.763Z,1003.77
2019-01-12T07:36:34.694Z,1003.77
2019-01-12T07:37:32.237Z,1003.66
2019-01-12T07:38:30.420Z,1003.64
2019-01-12T07:39:28.578Z,1003.58
2019-01-12T07:40:36.458Z,1003.47
2019-01-12T07:41:33.961Z,1003.58
2019-01-12T07:42:32.459Z,1003.52
2019-01-12T07:43:30.509Z,1003.66
2019-01-12T07:44:28.063Z,1003.62
2019-01-12T07:45:25.719Z,1003.56
2019-01-12T07:46:24.737Z,1003.52
2019-01-12T07:47:26.607Z,1003.55
2019-01-12T07:48:31.208Z,1003.55
2019-01-12T07:49:31.661Z,1003.49
2019-01-12T07:50:30.242Z,1003.43
2019-01-12T07:51:29.385Z,1003.43
2019-01-12T07:52:38.251Z,1003.46
2019-01-12T07:53:36.842Z,1003.47
2019-01-12T07:54:42.805Z,1003.36
2019-01-12T07:55:44.491Z,1003.39
2019-01-12T07:56:54.540Z,1003.39
2019-01-12T07:58:07.582Z,1003.39
2019-01-12T07:59:11.689Z,1003.25
2019-01-12T08:00:12.506Z,1003.19
2019-01-12T08:01:14.058Z,1003.19
2019-01-12T08:02:12.365Z,1003.17
2019-01-12T08:03:11.345Z,1003.12
2019-01-12T08:04:09.852Z,1003.2
2019-01-12T08:05:12.854Z,1003.2
2019-01-12T08:06:12.384Z,1003.32
2019-01-12T08:07:13.345Z,1003.2
2019-01-12T08:08:13.497Z,1003.2
2019-01-12T08:09:15.299Z,1003.32
2019-01-12T08:10:13.240Z,1003.23
2019-01-12T08:11:12.362Z,1003.2
2019-01-12T08:12:10.049Z,1003.2
2019-01-12T08:13:19.450Z,1003.2
2019-01-12T08:14:17.541Z,1003.16
2019-01-12T08:15:36.832Z,1003.25
2019-01-12T08:16:37.297Z,1003.13
2019-01-12T08:17:38.433Z,1003.16
2019-01-12T08:18:39.174Z,1002.98
2019-01-12T08:19:38.916Z,1003.01
2019-01-12T08:20:38.837Z,1003.04
2019-01-12T08:21:39.952Z,1003
2019-01-12T08:22:40.611Z,1002.95
2019-01-12T08:23:47.168Z,1003.06
2019-01-12T08:24:44.941Z,1003.01
2019-01-12T08:25:54.311Z,1002.95
2019-01-12T08:26:52.553Z,1002.98
2019-01-12T08:27:54.300Z,1002.88
2019-01-12T08:28:57.030Z,1002.88
2019-01-12T08:30:01.347Z,1002.88
2019-01-12T08:30:58.880Z,1002.9
2019-01-12T08:31:58.145Z,1002.86
2019-01-12T08:32:58.278Z,1002.88
2019-01-12T08:33:56.277Z,1002.82
2019-01-12T08:34:54.746Z,1002.86
2019-01-12T08:35:52.811Z,1002.88
2019-01-12T08:36:50.381Z,1002.73
2019-01-12T08:37:48.711Z,1002.88
2019-01-12T08:38:50.991Z,1002.76
2019-01-12T08:39:50.923Z,1002.85
2019-01-12T08:40:49.253Z,1002.82
2019-01-12T08:41:55.758Z,1002.88
2019-01-12T08:42:53.203Z,1002.94
2019-01-12T08:43:50.630Z,1002.93
2019-01-12T08:44:51.356Z,1003
2019-01-12T08:45:50.137Z,1002.95
2019-01-12T08:46:49.591Z,1003.03
2019-01-12T08:47:56.985Z,1002.97
2019-01-12T08:48:55.667Z,1003.1
2019-01-12T08:49:53.623Z,1003.09
2019-01-12T08:50:53.530Z,1003.07
2019-01-12T08:51:50.977Z,1003.06
2019-01-12T08:52:49.850Z,1002.97
2019-01-12T08:53:51.581Z,1002.9
2019-01-12T08:54:49.462Z,1002.88
2019-01-12T08:55:48.081Z,1002.88
2019-01-12T08:56:46.883Z,1002.76
2019-01-12T08:57:46.469Z,1002.85
2019-01-12T08:58:46.069Z,1002.79
2019-01-12T08:59:43.317Z,1002.88
2019-01-12T09:00:40.902Z,1002.76
2019-01-12T09:01:38.466Z,1002.76
2019-01-12T09:02:36.256Z,1002.66
2019-01-12T09:03:34.689Z,1002.71
2019-01-12T09:04:32.271Z,1002.73
2019-01-12T09:05:37.035Z,1002.67
2019-01-12T09:06:35.882Z,1002.69
2019-01-12T09:07:37.230Z,1002.66
2019-01-12T09:08:37.175Z,1002.63
2019-01-12T09:09:39.858Z,1002.57
2019-01-12T09:10:41.329Z,1002.58
2019-01-12T09:11:42.390Z,1002.58
2019-01-12T09:12:42.816Z,1002.52
2019-01-12T09:13:49.615Z,1002.5
2019-01-12T09:14:47.470Z,1002.44
2019-01-12T09:15:47.127Z,1002.42
2019-01-12T09:16:45.038Z,1002.39
2019-01-12T09:17:42.460Z,1002.38
2019-01-12T09:18:44.770Z,1002.32
2019-01-12T09:19:42.550Z,1002.39
2019-01-12T09:20:42.681Z,1002.36
2019-01-12T09:21:40.260Z,1002.35
2019-01-12T09:22:38.807Z,1002.33
2019-01-12T09:23:43.194Z,1002.42
2019-01-12T09:24:40.433Z,1002.48
2019-01-12T09:25:41.147Z,1002.51
2019-01-12T09:26:44.965Z,1002.33
2019-01-12T09:27:45.506Z,1002.38
2019-01-12T09:28:44.122Z,1002.36
2019-01-12T09:29:43.666Z,1002.38
2019-01-12T09:30:48.443Z,1002.35
2019-01-12T09:30:48.558Z,1002.35
2019-01-12T09:31:42.298Z,1002.41
2019-01-12T09:32:39.817Z,1002.35
2019-01-12T09:33:39.546Z,1002.32
2019-01-12T09:34:39.061Z,1002.35
2019-01-12T09:35:40.064Z,1002.35
2019-01-12T09:36:40.719Z,1002.35
2019-01-12T09:37:38.646Z,1002.35
2019-01-12T09:38:39.234Z,1002.25
2019-01-12T09:39:37.608Z,1002.23
2019-01-12T09:40:40.311Z,1002.14
2019-01-12T09:41:38.778Z,1002.19
2019-01-12T09:42:38.901Z,1002.17
2019-01-12T09:43:36.524Z,1002.08
2019-01-12T09:44:37.420Z,1002.17
2019-01-12T09:45:35.068Z,1002.08
2019-01-12T09:46:37.456Z,1002.08
2019-01-12T09:47:35.818Z,1002.04
2019-01-12T09:48:33.090Z,1002.07
2019-01-12T09:49:30.829Z,1002.04
2019-01-12T09:50:35.121Z,1001.89
2019-01-12T09:51:38.836Z,1001.79
2019-01-12T09:52:37.782Z,1001.82
2019-01-12T09:53:38.991Z,1001.84
2019-01-12T09:54:36.153Z,1001.75
2019-01-12T09:55:35.875Z,1001.85
2019-01-12T09:56:34.524Z,1001.95
2019-01-12T09:57:32.164Z,1001.89
2019-01-12T09:58:29.567Z,1001.87
2019-01-12T09:59:29.805Z,1001.86
2019-01-12T10:00:29.346Z,1001.82
2019-01-12T10:01:26.521Z,1002
2019-01-12T10:02:28.028Z,1001.84
2019-01-12T10:03:27.123Z,1001.85
2019-01-12T10:04:29.777Z,1001.78
2019-01-12T10:05:29.287Z,1001.82
2019-01-12T10:06:27.178Z,1001.81
2019-01-12T10:07:28.538Z,1001.86
2019-01-12T10:08:43.963Z,1001.81
2019-01-12T10:09:41.314Z,1001.81
2019-01-12T10:10:44.836Z,1001.7
2019-01-12T10:11:42.995Z,1001.76
2019-01-12T10:12:41.913Z,1001.72
2019-01-12T10:13:41.748Z,1001.63
2019-01-12T10:14:39.675Z,1001.75
2019-01-12T10:15:37.053Z,1001.81
2019-01-12T10:16:35.477Z,1001.69
2019-01-12T10:17:33.681Z,1001.7
2019-01-12T10:18:31.214Z,1001.66
2019-01-12T10:19:29.122Z,1001.75
2019-01-12T10:20:33.765Z,1001.57
2019-01-12T10:21:32.502Z,1001.51
2019-01-12T10:22:30.151Z,1001.53
2019-01-12T10:23:27.332Z,1001.51
2019-01-12T10:24:26.054Z,1001.51
2019-01-12T10:25:23.860Z,1001.47
2019-01-12T10:26:23.054Z,1001.53
2019-01-12T10:27:20.333Z,1001.54
2019-01-12T10:28:20.715Z,1001.42
2019-01-12T10:29:22.941Z,1001.41
2019-01-12T10:30:25.110Z,1001.33
2019-01-12T10:31:22.267Z,1001.3
2019-01-12T10:32:20.913Z,1001.27
2019-01-12T10:33:19.958Z,1001.29
2019-01-12T10:34:29.200Z,1001.35
2019-01-12T10:35:27.322Z,1001.27
2019-01-12T10:36:24.986Z,1001.26
2019-01-12T10:37:22.802Z,1001.22
2019-01-12T10:38:27.961Z,1001.29
2019-01-12T10:39:28.517Z,1001.19
2019-01-12T10:40:29.602Z,1001.22
2019-01-12T10:41:29.821Z,1001.17
2019-01-12T10:42:28.851Z,1001.22
2019-01-12T10:43:29.091Z,1001.14
2019-01-12T10:44:32.854Z,1001.1
2019-01-12T10:45:30.841Z,1001.23
2019-01-12T10:46:28.871Z,1001.14
2019-01-12T10:47:29.713Z,1001.1
2019-01-12T10:48:29.379Z,1001.04
2019-01-12T10:49:27.707Z,1001.05
2019-01-12T10:50:27.011Z,1001.1
2019-01-12T10:51:25.014Z,1001.07
2019-01-12T10:52:27.332Z,1001.11
2019-01-12T10:53:26.425Z,1001.04
2019-01-12T10:54:23.803Z,1001.02
2019-01-12T10:55:21.701Z,1000.92
2019-01-12T10:56:28.779Z,1001
2019-01-12T10:57:27.660Z,1000.92
2019-01-12T10:58:37.911Z,1000.88
2019-01-12T10:59:35.152Z,1000.86
2019-01-12T11:00:35.673Z,1000.94
2019-01-12T11:01:33.242Z,1000.89
2019-01-12T11:02:35.939Z,1000.94
2019-01-12T11:03:36.645Z,1000.89
2019-01-12T11:04:34.433Z,1000.85
2019-01-12T11:05:33.184Z,1000.91
2019-01-12T11:06:33.929Z,1000.83
2019-01-12T11:07:35.711Z,1000.8
2019-01-12T11:08:44.735Z,1000.89
2019-01-12T11:09:43.637Z,1000.8
2019-01-12T11:10:42.085Z,1000.89
2019-01-12T11:11:42.042Z,1000.76
2019-01-12T11:12:39.358Z,1000.76
2019-01-12T11:13:40.456Z,1000.78
2019-01-12T11:14:39.826Z,1000.73
2019-01-12T11:15:40.418Z,1000.7
2019-01-12T11:16:39.235Z,1000.79
2019-01-12T11:17:52.350Z,1000.67
2019-01-12T11:19:01.547Z,1000.64
2019-01-12T11:20:01.771Z,1000.57
2019-01-12T11:21:03.800Z,1000.55
2019-01-12T11:22:08.956Z,1000.56
2019-01-12T11:23:09.219Z,1000.59
2019-01-12T11:24:07.643Z,1000.51
2019-01-12T11:25:09.580Z,1000.45
2019-01-12T11:26:12.175Z,1000.49
2019-01-12T11:27:12.386Z,1000.46
2019-01-12T11:28:21.618Z,1000.42
2019-01-12T11:29:20.278Z,1000.29
2019-01-12T11:30:21.886Z,1000.33
2019-01-12T11:31:20.019Z,1000.2
2019-01-12T11:32:21.672Z,1000.26
2019-01-12T11:33:20.714Z,1000.24
2019-01-12T11:34:17.854Z,1000.18
2019-01-12T11:35:16.249Z,1000.27
2019-01-12T11:36:15.056Z,1000.26
2019-01-12T11:37:16.249Z,1000.17
2019-01-12T11:38:14.483Z,1000.24
2019-01-12T11:39:12.144Z,1000.13
2019-01-12T11:40:09.417Z,1000.1
2019-01-12T11:41:07.594Z,1000.04
2019-01-12T11:42:04.996Z,1000.05
2019-01-12T11:43:03.761Z,1000.08
2019-01-12T11:44:00.807Z,1000.1
2019-01-12T11:44:59.628Z,1000.01
2019-01-12T11:46:02.275Z,999.99
2019-01-12T11:46:59.681Z,1000.01
2019-01-12T11:48:02.186Z,999.89
2019-01-12T11:49:03.641Z,999.89
2019-01-12T11:50:00.968Z,999.85
2019-01-12T11:51:04.176Z,999.89
2019-01-12T11:52:04.529Z,999.85
2019-01-12T11:53:06.287Z,999.79
2019-01-12T11:54:04.159Z,999.79
2019-01-12T11:55:02.202Z,999.88
2019-01-12T11:55:59.563Z,999.77
2019-01-12T11:56:57.241Z,999.7
2019-01-12T11:57:54.934Z,999.69
2019-01-12T11:58:52.512Z,999.58
2019-01-12T11:59:49.596Z,999.61
2019-01-12T12:00:46.798Z,999.68
2019-01-12T12:01:44.368Z,999.58
2019-01-12T12:02:48.192Z,999.51
2019-01-12T12:03:46.872Z,999.46
2019-01-12T12:04:48.243Z,999.48
2019-01-12T12:05:45.945Z,999.51
2019-01-12T12:06:45.529Z,999.39
2019-01-12T12:07:44.700Z,999.43
2019-01-12T12:08:43.980Z,999.39
2019-01-12T12:09:46.165Z,999.42
2019-01-12T12:10:45.184Z,999.37
2019-01-12T12:11:50.702Z,999.27
2019-01-12T12:12:48.077Z,999.3